createdAt,value
2018-12-13T00:00:59.007Z,3.50
2018-12-13T00:01:59.289Z,3.60
2018-12-13T00:02:58.985Z,3.70
2018-12-13T00:03:58.976Z,3.70
2018-12-13T00:04:58.963Z,3.50
2018-12-13T00:05:58.952Z,3.50
2018-12-13T00:06:58.941Z,3.50
2018-12-13T00:07:59.222Z,3.60
2018-12-13T00:08:58.921Z,3.60
2018-12-13T00:09:58.911Z,3.30
2018-12-13T00:10:58.896Z,3.50
2018-12-13T00:11:58.885Z,3.60
2018-12-13T00:12:58.877Z,3.80
2018-12-13T00:13:58.871Z,3.60
2018-12-13T00:14:58.852Z,3.70
2018-12-13T00:15:58.841Z,3.50
2018-12-13T00:16:58.830Z,3.60
2018-12-13T00:17:58.817Z,3.50
2018-12-13T00:18:58.808Z,3.50
2018-12-13T00:19:58.804Z,3.60
2018-12-13T00:20:58.787Z,3.80
2018-12-13T00:21:58.775Z,3.50
2018-12-13T00:22:58.764Z,3.50
2018-12-13T00:23:58.753Z,3.40
2018-12-13T00:24:58.741Z,3.60
2018-12-13T00:25:58.741Z,3.60
2018-12-13T00:26:58.721Z,3.60
2018-12-13T00:27:58.710Z,3.50
2018-12-13T00:28:58.697Z,3.70
2018-12-13T00:29:58.686Z,3.40
2018-12-13T00:30:58.674Z,3.50
2018-12-13T00:31:58.672Z,3.60
2018-12-13T00:32:58.654Z,3.60
2018-12-13T00:33:58.645Z,3.40
2018-12-13T00:34:58.631Z,3.60
2018-12-13T00:35:58.621Z,3.60
2018-12-13T00:36:58.609Z,3.30
2018-12-13T00:37:58.606Z,3.30
2018-12-13T00:38:58.587Z,3.40
2018-12-13T00:39:58.577Z,3.50
2018-12-13T00:40:58.566Z,3.60
2018-12-13T00:41:58.554Z,3.40
2018-12-13T00:42:58.544Z,3.40
2018-12-13T00:43:58.553Z,3.50
2018-12-13T00:44:58.521Z,3.50
2018-12-13T00:45:58.511Z,3.90
2018-12-13T00:46:58.499Z,3.50
2018-12-13T00:47:58.494Z,3.50
2018-12-13T00:48:58.476Z,3.50
2018-12-13T00:49:58.476Z,3.70
2018-12-13T00:50:58.454Z,3.30
2018-12-13T00:51:58.445Z,3.90
2018-12-13T00:52:58.433Z,3.30
2018-12-13T00:53:58.421Z,3.50
2018-12-13T00:54:58.411Z,3.50
2018-12-13T00:55:58.408Z,3.30
2018-12-13T00:56:58.389Z,3.40
2018-12-13T00:57:58.379Z,3.30
2018-12-13T00:58:58.366Z,3.50
2018-12-13T00:59:58.357Z,3.40
2018-12-13T01:00:58.344Z,3.50
2018-12-13T01:01:58.610Z,3.30
2018-12-13T01:02:58.323Z,3.50
2018-12-13T01:03:58.312Z,3.40
2018-12-13T01:04:58.299Z,3.30
2018-12-13T01:05:58.292Z,3.50
2018-12-13T01:06:58.277Z,3.60
2018-12-13T01:07:58.554Z,3.40
2018-12-13T01:08:58.256Z,3.70
2018-12-13T01:09:58.244Z,3.30
2018-12-13T01:10:58.234Z,3.40
2018-12-13T01:11:58.224Z,3.60
2018-12-13T01:12:58.211Z,3.50
2018-12-13T01:13:58.485Z,3.50
2018-12-13T01:14:58.192Z,3.30
2018-12-13T01:15:58.177Z,3.10
2018-12-13T01:16:58.167Z,3.50
2018-12-13T01:17:58.156Z,3.20
2018-12-13T01:18:58.150Z,3.30
2018-12-13T01:19:58.426Z,3.50
2018-12-13T01:20:58.127Z,3.70
2018-12-13T01:21:58.112Z,3.40
2018-12-13T01:22:58.103Z,3.30
2018-12-13T01:23:58.091Z,3.30
2018-12-13T01:24:58.079Z,3.50
2018-12-13T01:25:58.076Z,3.20
2018-12-13T01:26:58.057Z,3.50
2018-12-13T01:27:58.046Z,3.30
2018-12-13T01:28:58.036Z,3.50
2018-12-13T01:29:58.026Z,3.40
2018-12-13T01:30:58.014Z,3.50
2018-12-13T01:31:58.018Z,3.50
2018-12-13T01:32:57.992Z,3.30
2018-12-13T01:33:57.980Z,3.50
2018-12-13T01:34:57.969Z,3.60
2018-12-13T01:35:57.963Z,3.30
2018-12-13T01:36:57.949Z,3.40
2018-12-13T01:37:57.944Z,3.30
2018-12-13T01:38:57.926Z,3.20
2018-12-13T01:39:57.919Z,3.40
2018-12-13T01:40:57.904Z,3.30
2018-12-13T01:41:57.893Z,3.70
2018-12-13T01:42:57.880Z,3.40
2018-12-13T01:43:57.877Z,3.50
2018-12-13T01:44:57.860Z,3.10
2018-12-13T01:45:57.847Z,3.50
2018-12-13T01:46:57.843Z,3.40
2018-12-13T01:47:57.826Z,3.60
2018-12-13T01:48:57.814Z,3.30
2018-12-13T01:49:57.813Z,3.40
2018-12-13T01:50:57.792Z,3.30
2018-12-13T01:51:57.785Z,3.30
2018-12-13T01:52:57.770Z,3.30
2018-12-13T01:53:57.758Z,3.40
2018-12-13T01:54:57.749Z,3.30
2018-12-13T01:55:57.746Z,3.50
2018-12-13T01:56:57.731Z,3.40
2018-12-13T01:57:57.716Z,3.30
2018-12-13T01:58:57.705Z,3.50
2018-12-13T01:59:57.697Z,3.50
2018-12-13T02:00:57.681Z,3.30
2018-12-13T02:01:57.680Z,3.30
2018-12-13T02:02:57.660Z,3.10
2018-12-13T02:03:57.652Z,3.40
2018-12-13T02:04:57.638Z,3.40
2018-12-13T02:05:57.628Z,3.50
2018-12-13T02:06:58.912Z,3.40
2018-12-13T02:07:57.613Z,3.20
2018-12-13T02:08:57.594Z,3.50
2018-12-13T02:09:57.583Z,3.50
2018-12-13T02:10:57.572Z,3.20
2018-12-13T02:11:57.560Z,3.40
2018-12-13T02:12:57.553Z,3.30
2018-12-13T02:13:57.547Z,3.10
2018-12-13T02:14:57.528Z,3.40
2018-12-13T02:15:57.516Z,3.20
2018-12-13T02:16:57.506Z,3.20
2018-12-13T02:17:57.495Z,3.10
2018-12-13T02:18:57.484Z,3.40
2018-12-13T02:19:57.746Z,3.40
2018-12-13T02:20:57.461Z,3.10
2018-12-13T02:21:57.450Z,3.30
2018-12-13T02:22:57.441Z,3.50
2018-12-13T02:23:57.428Z,3.20
2018-12-13T02:24:57.418Z,3.20
2018-12-13T02:25:57.690Z,3.10
2018-12-13T02:26:57.395Z,3.40
2018-12-13T02:27:57.384Z,3.20
2018-12-13T02:28:57.371Z,3.20
2018-12-13T02:29:57.363Z,3.50
2018-12-13T02:30:57.349Z,3.40
2018-12-13T02:31:57.635Z,3.40
2018-12-13T02:32:57.334Z,3.20
2018-12-13T02:33:57.361Z,3.40
2018-12-13T02:34:57.306Z,3.40
2018-12-13T02:35:57.296Z,3.30
2018-12-13T02:36:57.283Z,3.30
2018-12-13T02:37:57.287Z,3.10
2018-12-13T02:38:57.262Z,3.30
2018-12-13T02:39:57.249Z,3.10
2018-12-13T02:40:57.246Z,3.40
2018-12-13T02:41:57.229Z,3.10
2018-12-13T02:42:57.218Z,3.20
2018-12-13T02:43:57.215Z,3.30
2018-12-13T02:44:57.194Z,3.20
2018-12-13T02:45:57.193Z,3.10
2018-12-13T02:46:57.172Z,3.10
2018-12-13T02:47:57.165Z,3.40
2018-12-13T02:48:57.151Z,3.30
2018-12-13T02:49:57.147Z,3.20
2018-12-13T02:50:57.133Z,3.50
2018-12-13T02:51:57.119Z,3.00
2018-12-13T02:52:57.105Z,3.30
2018-12-13T02:53:57.100Z,3.00
2018-12-13T02:54:57.094Z,3.20
2018-12-13T02:55:57.088Z,3.30
2018-12-13T02:56:57.061Z,3.20
2018-12-13T02:57:57.050Z,3.30
2018-12-13T02:58:57.039Z,3.50
2018-12-13T02:59:57.028Z,3.30
2018-12-13T03:00:57.027Z,3.30
2018-12-13T03:01:57.016Z,3.40
2018-12-13T03:02:57.000Z,3.10
2018-12-13T03:03:56.984Z,3.30
2018-12-13T03:04:56.974Z,3.20
2018-12-13T03:05:56.963Z,3.60
2018-12-13T03:06:56.950Z,3.20
2018-12-13T03:07:56.952Z,3.60
2018-12-13T03:08:56.929Z,3.40
2018-12-13T03:09:56.917Z,3.50
2018-12-13T03:10:56.907Z,3.30
2018-12-13T03:11:56.895Z,3.40
2018-12-13T03:12:56.887Z,3.60
2018-12-13T03:13:56.881Z,3.40
2018-12-13T03:14:56.862Z,3.30
2018-12-13T03:15:56.850Z,3.60
2018-12-13T03:16:56.841Z,3.30
2018-12-13T03:17:56.831Z,3.30
2018-12-13T03:18:56.818Z,3.40
2018-12-13T03:19:57.102Z,3.60
2018-12-13T03:20:56.796Z,3.50
2018-12-13T03:21:56.787Z,3.50
2018-12-13T03:22:56.774Z,3.30
2018-12-13T03:23:56.763Z,3.60
2018-12-13T03:24:56.752Z,3.70
2018-12-13T03:25:56.747Z,3.60
2018-12-13T03:26:56.730Z,3.80
2018-12-13T03:27:56.719Z,3.50
2018-12-13T03:28:56.709Z,3.60
2018-12-13T03:29:56.702Z,3.80
2018-12-13T03:30:56.687Z,3.70
2018-12-13T03:31:56.993Z,3.70
2018-12-13T03:32:56.673Z,4.00
2018-12-13T03:33:57.463Z,3.70
2018-12-13T03:34:56.641Z,3.40
2018-12-13T03:35:56.637Z,3.60
2018-12-13T03:36:56.622Z,3.60
2018-12-13T03:37:56.620Z,3.60
2018-12-13T03:38:56.598Z,4.00
2018-12-13T03:39:56.588Z,3.50
2018-12-13T03:40:56.574Z,3.60
2018-12-13T03:41:56.571Z,3.80
2018-12-13T03:42:56.554Z,3.80
2018-12-13T03:43:56.556Z,3.70
2018-12-13T03:44:56.531Z,3.80
2018-12-13T03:45:56.526Z,3.60
2018-12-13T03:46:56.511Z,3.80
2018-12-13T03:47:56.497Z,3.80
2018-12-13T03:48:56.488Z,4.20
2018-12-13T03:49:56.483Z,4.10
2018-12-13T03:50:56.465Z,3.80
2018-12-13T03:51:56.455Z,3.60
2018-12-13T03:52:56.446Z,4.10
2018-12-13T03:53:56.432Z,3.70
2018-12-13T03:54:56.421Z,3.80
2018-12-13T03:55:56.421Z,3.80
2018-12-13T03:56:56.402Z,3.60
2018-12-13T03:57:56.387Z,3.60
2018-12-13T03:58:56.378Z,3.60
2018-12-13T03:59:56.366Z,3.30
2018-12-13T04:00:56.355Z,3.80
2018-12-13T04:01:56.354Z,4.00
2018-12-13T04:02:56.332Z,3.80
2018-12-13T04:03:56.338Z,3.40
2018-12-13T04:04:56.309Z,3.80
2018-12-13T04:05:56.300Z,3.80
2018-12-13T04:06:56.290Z,3.60
2018-12-13T04:07:56.287Z,3.80
2018-12-13T04:08:56.268Z,3.80
2018-12-13T04:09:56.254Z,3.80
2018-12-13T04:10:56.244Z,3.90
2018-12-13T04:11:56.233Z,3.90
2018-12-13T04:12:56.222Z,3.60
2018-12-13T04:13:56.219Z,3.80
2018-12-13T04:14:56.198Z,3.50
2018-12-13T04:15:56.188Z,3.80
2018-12-13T04:16:56.177Z,3.90
2018-12-13T04:17:56.168Z,3.70
2018-12-13T04:18:56.156Z,4.00
2018-12-13T04:19:56.153Z,3.90
2018-12-13T04:20:56.134Z,4.00
2018-12-13T04:21:56.124Z,4.10
2018-12-13T04:22:56.110Z,4.30
2018-12-13T04:23:56.104Z,4.10
2018-12-13T04:24:56.089Z,4.10
2018-12-13T04:25:56.084Z,3.90
2018-12-13T04:26:56.068Z,3.80
2018-12-13T04:27:56.057Z,4.00
2018-12-13T04:28:56.043Z,3.80
2018-12-13T04:29:56.039Z,3.80
2018-12-13T04:30:56.021Z,4.20
2018-12-13T04:31:56.019Z,3.90
2018-12-13T04:32:56.000Z,4.00
2018-12-13T04:33:55.990Z,4.40
2018-12-13T04:34:55.979Z,4.10
2018-12-13T04:35:55.968Z,4.20
2018-12-13T04:36:55.956Z,3.80
2018-12-13T04:37:56.229Z,4.30
2018-12-13T04:38:55.933Z,4.20
2018-12-13T04:39:55.923Z,3.80
2018-12-13T04:40:55.913Z,4.20
2018-12-13T04:41:55.901Z,4.10
2018-12-13T04:42:55.889Z,3.60
2018-12-13T04:43:56.162Z,4.20
2018-12-13T04:44:55.870Z,3.90
2018-12-13T04:45:55.856Z,4.10
2018-12-13T04:46:55.846Z,4.10
2018-12-13T04:47:55.835Z,4.30
2018-12-13T04:48:55.826Z,3.90
2018-12-13T04:49:56.081Z,4.00
2018-12-13T04:50:55.801Z,4.20
2018-12-13T04:51:55.790Z,4.50
2018-12-13T04:52:55.779Z,4.00
2018-12-13T04:53:55.802Z,4.20
2018-12-13T04:54:55.759Z,4.10
2018-12-13T04:55:56.022Z,4.00
2018-12-13T04:56:55.734Z,3.80
2018-12-13T04:57:55.724Z,4.30
2018-12-13T04:58:55.712Z,4.00
2018-12-13T04:59:55.701Z,4.00
2018-12-13T05:00:55.690Z,4.30
2018-12-13T05:01:55.685Z,4.00
2018-12-13T05:02:55.669Z,4.00
2018-12-13T05:03:55.659Z,4.20
2018-12-13T05:04:55.646Z,4.10
2018-12-13T05:05:55.635Z,4.50
2018-12-13T05:06:55.625Z,4.40
2018-12-13T05:07:55.897Z,4.10
2018-12-13T05:08:55.602Z,4.10
2018-12-13T05:09:55.592Z,4.40
2018-12-13T05:10:55.584Z,3.90
2018-12-13T05:11:55.569Z,4.30
2018-12-13T05:12:55.558Z,4.40
2018-12-13T05:13:55.553Z,4.20
2018-12-13T05:14:55.535Z,4.00
2018-12-13T05:15:55.525Z,3.90
2018-12-13T05:16:55.553Z,4.00
2018-12-13T05:17:55.503Z,4.20
2018-12-13T05:18:55.492Z,4.60
2018-12-13T05:19:55.488Z,4.50
2018-12-13T05:20:55.470Z,4.30
2018-12-13T05:21:55.458Z,4.00
2018-12-13T05:22:55.449Z,4.20
2018-12-13T05:23:55.437Z,4.30
2018-12-13T05:24:55.425Z,4.40
2018-12-13T05:25:55.421Z,4.10
2018-12-13T05:26:55.404Z,4.40
2018-12-13T05:27:55.392Z,4.30
2018-12-13T05:28:55.382Z,4.10
2018-12-13T05:29:55.371Z,4.50
2018-12-13T05:30:55.359Z,4.20
2018-12-13T05:31:55.354Z,4.40
2018-12-13T05:32:55.336Z,4.80
2018-12-13T05:33:55.336Z,4.30
2018-12-13T05:34:55.315Z,4.00
2018-12-13T05:35:55.304Z,4.40
2018-12-13T05:36:55.292Z,3.90
2018-12-13T05:37:55.556Z,4.00
2018-12-13T05:38:55.269Z,3.80
2018-12-13T05:39:55.259Z,4.00
2018-12-13T05:40:55.249Z,4.50
2018-12-13T05:41:55.236Z,3.90
2018-12-13T05:42:55.227Z,4.10
2018-12-13T05:43:55.223Z,4.10
2018-12-13T05:44:55.205Z,3.80
2018-12-13T05:45:55.194Z,4.00
2018-12-13T05:46:55.182Z,4.20
2018-12-13T05:47:55.187Z,4.40
2018-12-13T05:48:55.161Z,3.90
2018-12-13T05:49:55.438Z,4.70
2018-12-13T05:50:55.139Z,4.00
2018-12-13T05:51:55.128Z,4.20
2018-12-13T05:52:55.116Z,4.10
2018-12-13T05:53:55.106Z,4.20
2018-12-13T05:54:55.093Z,4.20
2018-12-13T05:55:55.089Z,4.10
2018-12-13T05:56:55.074Z,4.00
2018-12-13T05:57:55.060Z,3.80
2018-12-13T05:58:55.054Z,4.10
2018-12-13T05:59:55.039Z,4.40
2018-12-13T06:00:55.026Z,4.10
2018-12-13T06:01:55.025Z,3.90
2018-12-13T06:02:55.007Z,4.50
2018-12-13T06:03:54.995Z,4.30
2018-12-13T06:04:54.983Z,4.60
2018-12-13T06:05:54.972Z,4.40
2018-12-13T06:06:54.964Z,3.90
2018-12-13T06:07:55.251Z,4.40
2018-12-13T06:08:54.939Z,4.30
2018-12-13T06:09:54.928Z,4.40
2018-12-13T06:10:54.918Z,4.10
2018-12-13T06:11:54.906Z,4.20
2018-12-13T06:12:54.895Z,3.90
2018-12-13T06:13:54.892Z,4.00
2018-12-13T06:14:54.873Z,4.10
2018-12-13T06:15:54.862Z,4.00
2018-12-13T06:16:54.851Z,4.40
2018-12-13T06:17:54.839Z,4.30
2018-12-13T06:18:54.829Z,4.20
2018-12-13T06:19:54.826Z,4.10
2018-12-13T06:20:54.807Z,4.70
2018-12-13T06:21:54.796Z,4.00
2018-12-13T06:22:54.784Z,4.20
2018-12-13T06:23:54.774Z,4.10
2018-12-13T06:24:54.763Z,4.20
2018-12-13T06:25:55.033Z,4.30
2018-12-13T06:26:54.743Z,4.20
2018-12-13T06:27:54.730Z,4.50
2018-12-13T06:28:54.719Z,4.20
2018-12-13T06:29:58.842Z,4.20
2018-12-13T06:30:54.697Z,4.30
2018-12-13T06:31:54.707Z,4.10
2018-12-13T06:32:54.675Z,4.30
2018-12-13T06:33:54.664Z,4.20
2018-12-13T06:34:54.655Z,4.00
2018-12-13T06:35:54.643Z,4.50
2018-12-13T06:36:54.630Z,4.40
2018-12-13T06:38:01.037Z,4.30
2018-12-13T06:38:55.609Z,4.70
2018-12-13T06:39:54.598Z,3.90
2018-12-13T06:40:54.587Z,4.50
2018-12-13T06:41:54.576Z,3.90
2018-12-13T06:42:54.565Z,4.30
2018-12-13T06:43:54.843Z,4.50
2018-12-13T06:44:54.544Z,4.30
2018-12-13T06:45:54.532Z,4.10
2018-12-13T06:46:54.521Z,4.30
2018-12-13T06:47:54.510Z,4.00
2018-12-13T06:48:54.499Z,4.10
2018-12-13T06:49:54.498Z,4.00
2018-12-13T06:50:54.476Z,4.20
2018-12-13T06:51:54.466Z,3.80
2018-12-13T06:52:54.455Z,3.90
2018-12-13T06:53:54.443Z,4.10
2018-12-13T06:54:54.435Z,4.00
2018-12-13T06:55:54.444Z,4.10
2018-12-13T06:56:54.410Z,4.00
2018-12-13T06:57:54.402Z,4.30
2018-12-13T06:58:54.389Z,4.10
2018-12-13T06:59:54.376Z,4.30
2018-12-13T07:00:54.367Z,4.20
2018-12-13T07:01:54.632Z,4.00
2018-12-13T07:02:54.343Z,4.40
2018-12-13T07:03:54.334Z,4.00
2018-12-13T07:04:54.322Z,4.20
2018-12-13T07:05:54.311Z,4.30
2018-12-13T07:06:54.300Z,4.30
2018-12-13T07:07:54.555Z,4.00
2018-12-13T07:08:54.280Z,4.20
2018-12-13T07:09:54.269Z,4.20
2018-12-13T07:10:54.255Z,4.20
2018-12-13T07:11:54.244Z,3.90
2018-12-13T07:12:54.235Z,4.00
2018-12-13T07:13:54.519Z,4.30
2018-12-13T07:14:54.214Z,3.80
2018-12-13T07:15:54.202Z,4.20
2018-12-13T07:16:54.189Z,4.20
2018-12-13T07:17:54.179Z,4.10
2018-12-13T07:18:54.167Z,4.20
2018-12-13T07:19:54.164Z,4.00
2018-12-13T07:20:54.147Z,4.00
2018-12-13T07:21:54.135Z,4.00
2018-12-13T07:22:54.125Z,4.40
2018-12-13T07:23:54.112Z,3.90
2018-12-13T07:24:54.101Z,4.00
2018-12-13T07:25:54.112Z,4.20
2018-12-13T07:26:54.077Z,4.30
2018-12-13T07:27:54.068Z,4.50
2018-12-13T07:28:54.062Z,4.30
2018-12-13T07:29:54.046Z,4.10
2018-12-13T07:30:54.035Z,3.90
2018-12-13T07:31:54.311Z,3.90
2018-12-13T07:32:54.013Z,4.40
2018-12-13T07:33:54.003Z,4.00
2018-12-13T07:34:53.990Z,4.40
2018-12-13T07:35:53.979Z,4.10
2018-12-13T07:36:53.969Z,4.40
2018-12-13T07:37:54.244Z,4.10
2018-12-13T07:38:53.947Z,4.00
2018-12-13T07:39:53.937Z,4.50
2018-12-13T07:40:53.924Z,4.40
2018-12-13T07:41:53.914Z,4.10
2018-12-13T07:42:53.902Z,4.30
2018-12-13T07:43:54.164Z,4.40
2018-12-13T07:44:53.879Z,4.50
2018-12-13T07:45:53.869Z,4.20
2018-12-13T07:46:53.858Z,4.50
2018-12-13T07:47:53.847Z,4.20
2018-12-13T07:48:56.619Z,4.00
2018-12-13T07:49:54.099Z,4.00
2018-12-13T07:50:53.815Z,4.30
2018-12-13T07:51:53.804Z,4.00
2018-12-13T07:52:53.790Z,4.20
2018-12-13T07:53:53.781Z,4.00
2018-12-13T07:54:53.768Z,4.50
2018-12-13T07:55:53.767Z,4.40
2018-12-13T07:56:53.748Z,4.10
2018-12-13T07:57:53.736Z,4.30
2018-12-13T07:58:53.726Z,4.40
2018-12-13T07:59:53.714Z,4.40
2018-12-13T08:00:53.704Z,4.60
2018-12-13T08:01:53.980Z,4.20
2018-12-13T08:02:53.681Z,4.50
2018-12-13T08:03:53.670Z,4.50
2018-12-13T08:04:53.658Z,4.00
2018-12-13T08:05:53.649Z,4.30
2018-12-13T08:06:53.638Z,4.70
2018-12-13T08:07:53.898Z,4.10
2018-12-13T08:08:53.616Z,4.40
2018-12-13T08:09:53.604Z,3.90
2018-12-13T08:10:53.593Z,4.40
2018-12-13T08:11:53.581Z,4.50
2018-12-13T08:12:53.570Z,4.50
2018-12-13T08:13:53.832Z,4.10
2018-12-13T08:14:53.548Z,4.30
2018-12-13T08:15:53.538Z,4.30
2018-12-13T08:16:53.528Z,4.30
2018-12-13T08:17:53.516Z,4.40
2018-12-13T08:18:53.503Z,4.10
2018-12-13T08:19:53.763Z,4.20
2018-12-13T08:20:53.484Z,4.20
2018-12-13T08:21:53.471Z,4.20
2018-12-13T08:22:53.461Z,4.50
2018-12-13T08:23:53.451Z,4.10
2018-12-13T08:24:53.438Z,4.00
2018-12-13T08:25:53.707Z,4.20
2018-12-13T08:26:53.416Z,4.20
2018-12-13T08:27:53.403Z,4.30
2018-12-13T08:28:53.393Z,4.20
2018-12-13T08:29:53.384Z,4.10
2018-12-13T08:30:53.371Z,4.00
2018-12-13T08:31:53.379Z,4.30
2018-12-13T08:32:53.349Z,4.40
2018-12-13T08:33:53.338Z,4.30
2018-12-13T08:34:53.328Z,4.30
2018-12-13T08:35:53.316Z,4.60
2018-12-13T08:36:53.305Z,3.80
2018-12-13T08:37:53.566Z,4.30
2018-12-13T08:38:53.283Z,4.10
2018-12-13T08:39:53.274Z,4.10
2018-12-13T08:40:53.262Z,4.30
2018-12-13T08:41:53.250Z,4.30
2018-12-13T08:42:53.238Z,4.10
2018-12-13T08:43:53.246Z,4.10
2018-12-13T08:44:53.234Z,4.10
2018-12-13T08:45:53.205Z,4.10
2018-12-13T08:46:53.195Z,4.40
2018-12-13T08:47:53.183Z,4.30
2018-12-13T08:48:53.174Z,4.20
2018-12-13T08:49:53.441Z,4.00
2018-12-13T08:50:54.306Z,3.90
2018-12-13T08:51:53.140Z,4.40
2018-12-13T08:52:53.130Z,4.20
2018-12-13T08:53:53.121Z,4.10
2018-12-13T08:54:53.107Z,3.90
2018-12-13T08:55:53.374Z,4.40
2018-12-13T08:56:53.085Z,4.30
2018-12-13T08:57:53.076Z,4.30
2018-12-13T08:58:53.063Z,4.00
2018-12-13T08:59:53.057Z,4.30
2018-12-13T09:00:53.042Z,4.40
2018-12-13T09:01:53.053Z,4.10
2018-12-13T09:02:53.021Z,4.60
2018-12-13T09:03:53.008Z,4.30
2018-12-13T09:04:52.996Z,4.30
2018-12-13T09:05:52.985Z,4.50
2018-12-13T09:06:52.975Z,4.00
2018-12-13T09:07:53.241Z,4.20
2018-12-13T09:08:52.955Z,4.30
2018-12-13T09:09:52.942Z,4.00
2018-12-13T09:10:52.933Z,4.20
2018-12-13T09:11:52.922Z,4.70
2018-12-13T09:12:52.909Z,4.30
2018-12-13T09:13:52.922Z,4.10
2018-12-13T09:14:52.887Z,4.80
2018-12-13T09:15:52.876Z,4.40
2018-12-13T09:16:52.865Z,4.70
2018-12-13T09:17:52.855Z,4.30
2018-12-13T09:18:52.845Z,4.70
2018-12-13T09:19:52.853Z,4.60
2018-12-13T09:20:52.820Z,4.20
2018-12-13T09:21:52.809Z,4.80
2018-12-13T09:22:52.802Z,4.50
2018-12-13T09:23:52.790Z,4.20
2018-12-13T09:24:52.780Z,4.80
2018-12-13T09:25:52.774Z,4.30
2018-12-13T09:26:52.754Z,4.50
2018-12-13T09:27:52.743Z,4.70
2018-12-13T09:28:52.733Z,4.80
2018-12-13T09:29:52.721Z,4.90
2018-12-13T09:30:52.711Z,4.40
2018-12-13T09:31:52.989Z,4.40
2018-12-13T09:32:52.689Z,4.80
2018-12-13T09:33:52.679Z,4.60
2018-12-13T09:34:52.666Z,4.50
2018-12-13T09:35:52.656Z,4.40
2018-12-13T09:36:52.647Z,4.70
2018-12-13T09:37:52.909Z,4.60
2018-12-13T09:38:52.622Z,4.60
2018-12-13T09:39:52.610Z,4.70
2018-12-13T09:40:52.600Z,4.80
2018-12-13T09:41:52.589Z,4.50
2018-12-13T09:42:52.613Z,4.40
2018-12-13T09:43:52.585Z,4.20
2018-12-13T09:44:52.555Z,4.40
2018-12-13T09:45:52.544Z,4.60
2018-12-13T09:46:52.535Z,4.90
2018-12-13T09:47:52.523Z,4.50
2018-12-13T09:48:52.512Z,4.70
2018-12-13T09:49:52.790Z,5.00
2018-12-13T09:50:52.489Z,4.90
2018-12-13T09:51:52.478Z,4.70
2018-12-13T09:52:52.467Z,5.00
2018-12-13T09:53:52.456Z,5.10
2018-12-13T09:54:52.448Z,5.20
2018-12-13T09:55:52.712Z,5.30
2018-12-13T09:56:52.424Z,5.50
2018-12-13T09:57:52.412Z,5.50
2018-12-13T09:58:52.400Z,5.50
2018-12-13T09:59:52.396Z,5.70
2018-12-13T10:00:52.377Z,5.60
2018-12-13T10:01:52.377Z,5.90
2018-12-13T10:02:52.356Z,5.80
2018-12-13T10:03:52.345Z,5.50
2018-12-13T10:04:52.334Z,5.40
2018-12-13T10:05:52.322Z,5.80
2018-12-13T10:06:52.311Z,5.60
2018-12-13T10:07:52.309Z,6.00
2018-12-13T10:08:52.290Z,6.10
2018-12-13T10:09:52.279Z,6.30
2018-12-13T10:10:52.269Z,6.50
2018-12-13T10:11:52.258Z,7.00
2018-12-13T10:12:52.246Z,6.40
2018-12-13T10:13:52.242Z,6.50
2018-12-13T10:14:52.224Z,7.20
2018-12-13T10:15:52.211Z,7.20
2018-12-13T10:16:52.201Z,7.20
2018-12-13T10:17:52.189Z,7.40
2018-12-13T10:18:52.179Z,7.80
2018-12-13T10:19:52.437Z,9.20
2018-12-13T10:20:52.156Z,9.10
2018-12-13T10:21:52.146Z,10.80
2018-12-13T10:22:52.138Z,11.00
2018-12-13T10:23:52.126Z,12.50
2018-12-13T10:24:52.117Z,11.80
2018-12-13T10:25:52.381Z,13.00
2018-12-13T10:26:52.089Z,13.80
2018-12-13T10:27:52.079Z,14.60
2018-12-13T10:28:52.068Z,13.20
2018-12-13T10:29:52.057Z,13.60
2018-12-13T10:30:52.047Z,13.60
2018-12-13T10:31:52.320Z,16.20
2018-12-13T10:32:52.024Z,16.60
2018-12-13T10:33:52.012Z,18.20
2018-12-13T10:34:52.001Z,17.80
2018-12-13T10:35:51.991Z,18.30
2018-12-13T10:36:51.982Z,18.60
2018-12-13T10:37:52.233Z,19.50
2018-12-13T10:38:53.184Z,19.90
2018-12-13T10:39:51.944Z,19.40
2018-12-13T10:40:51.934Z,20.30
2018-12-13T10:41:51.923Z,22.20
2018-12-13T10:42:51.911Z,22.80
2018-12-13T10:43:52.167Z,21.00
2018-12-13T10:44:51.890Z,21.40
2018-12-13T10:45:51.879Z,21.80
2018-12-13T10:46:51.870Z,22.00
2018-12-13T10:47:51.857Z,22.30
2018-12-13T10:48:51.845Z,22.90
2018-12-13T10:49:52.175Z,23.10
2018-12-13T10:50:51.823Z,23.30
2018-12-13T10:51:51.811Z,23.20
2018-12-13T10:52:51.804Z,22.80
2018-12-13T10:53:51.792Z,21.90
2018-12-13T10:54:51.780Z,23.40
2018-12-13T10:55:52.063Z,23.20
2018-12-13T10:56:54.430Z,23.20
2018-12-13T10:57:51.746Z,23.80
2018-12-13T10:58:51.785Z,23.40
2018-12-13T10:59:51.726Z,23.50
2018-12-13T11:00:51.713Z,23.20
2018-12-13T11:01:51.983Z,22.90
2018-12-13T11:02:51.691Z,22.40
2018-12-13T11:03:51.681Z,21.80
2018-12-13T11:04:51.671Z,22.00
2018-12-13T11:05:51.659Z,22.20
2018-12-13T11:06:51.648Z,23.40
2018-12-13T11:07:51.645Z,22.40
2018-12-13T11:08:51.627Z,22.50
2018-12-13T11:09:51.615Z,22.70
2018-12-13T11:10:51.604Z,24.00
2018-12-13T11:11:51.596Z,23.50
2018-12-13T11:12:51.580Z,23.40
2018-12-13T11:13:51.857Z,25.70
2018-12-13T11:14:51.562Z,26.80
2018-12-13T11:15:51.548Z,27.60
2018-12-13T11:16:51.538Z,29.60
2018-12-13T11:17:51.526Z,29.40
2018-12-13T11:18:51.514Z,26.50
2018-12-13T11:19:51.514Z,27.90
2018-12-13T11:20:51.496Z,27.90
2018-12-13T11:21:51.483Z,27.20
2018-12-13T11:22:51.473Z,29.10
2018-12-13T11:23:51.460Z,27.40
2018-12-13T11:24:51.449Z,27.40
2018-12-13T11:25:51.718Z,27.80
2018-12-13T11:26:51.426Z,27.70
2018-12-13T11:27:51.418Z,27.70
2018-12-13T11:28:51.404Z,27.20
2018-12-13T11:29:51.393Z,27.10
2018-12-13T11:30:51.383Z,27.70
2018-12-13T11:31:51.657Z,27.40
2018-12-13T11:32:51.365Z,26.30
2018-12-13T11:33:51.354Z,26.90
2018-12-13T11:34:51.339Z,27.10
2018-12-13T11:35:51.330Z,27.20
2018-12-13T11:36:51.318Z,26.60
2018-12-13T11:37:51.583Z,26.90
2018-12-13T11:38:51.295Z,25.00
2018-12-13T11:39:51.286Z,24.80
2018-12-13T11:40:51.276Z,24.80
2018-12-13T11:41:51.261Z,23.70
2018-12-13T11:42:51.251Z,24.80
2018-12-13T11:43:51.258Z,23.20
2018-12-13T11:44:51.228Z,23.40
2018-12-13T11:45:51.216Z,23.10
2018-12-13T11:46:51.205Z,23.00
2018-12-13T11:47:51.194Z,22.70
2018-12-13T11:48:51.244Z,22.20
2018-12-13T11:49:51.196Z,23.10
2018-12-13T11:50:51.163Z,22.20
2018-12-13T11:51:51.152Z,23.60
2018-12-13T11:52:51.143Z,24.40
2018-12-13T11:53:51.131Z,24.50
2018-12-13T11:54:51.118Z,23.90
2018-12-13T11:55:52.000Z,25.40
2018-12-13T11:56:51.095Z,26.30
2018-12-13T11:57:51.085Z,26.80
2018-12-13T11:58:51.073Z,27.30
2018-12-13T11:59:51.064Z,26.60
2018-12-13T12:00:51.054Z,28.70
2018-12-13T12:02:05.946Z,27.00
2018-12-13T12:02:51.029Z,26.60
2018-12-13T12:03:51.018Z,27.00
2018-12-13T12:04:51.006Z,27.10
2018-12-13T12:05:50.998Z,24.60
2018-12-13T12:06:50.985Z,24.30
2018-12-13T12:07:51.033Z,23.70
2018-12-13T12:08:50.965Z,22.50
2018-12-13T12:09:50.954Z,23.20
2018-12-13T12:10:50.941Z,20.30
2018-12-13T12:11:50.929Z,20.40
2018-12-13T12:12:50.919Z,19.90
2018-12-13T12:13:51.194Z,19.20
2018-12-13T12:14:50.898Z,19.20
2018-12-13T12:15:50.885Z,20.30
2018-12-13T12:16:50.875Z,19.20
2018-12-13T12:17:50.865Z,18.70
2018-12-13T12:18:50.852Z,17.70
2018-12-13T12:19:50.862Z,18.10
2018-12-13T12:20:50.831Z,17.90
2018-12-13T12:21:50.819Z,18.20
2018-12-13T12:22:50.808Z,17.40
2018-12-13T12:23:50.798Z,17.10
2018-12-13T12:24:50.787Z,17.10
2018-12-13T12:25:50.784Z,16.80
2018-12-13T12:26:50.764Z,16.50
2018-12-13T12:27:50.756Z,16.40
2018-12-13T12:28:50.743Z,15.70
2018-12-13T12:29:50.732Z,15.90
2018-12-13T12:30:50.721Z,15.20
2018-12-13T12:31:50.985Z,16.10
2018-12-13T12:32:50.702Z,15.30
2018-12-13T12:33:50.687Z,14.50
2018-12-13T12:34:50.675Z,15.00
2018-12-13T12:35:50.668Z,14.90
2018-12-13T12:36:50.654Z,14.30
2018-12-13T12:37:50.650Z,14.30
2018-12-13T12:38:50.632Z,14.50
2018-12-13T12:39:50.622Z,14.30
2018-12-13T12:40:50.614Z,13.60
2018-12-13T12:41:50.599Z,13.40
2018-12-13T12:42:50.590Z,14.70
2018-12-13T12:43:50.586Z,13.50
2018-12-13T12:44:50.566Z,14.60
2018-12-13T12:45:50.557Z,14.00
2018-12-13T12:46:50.612Z,13.50
2018-12-13T12:47:50.534Z,13.50
2018-12-13T12:48:50.526Z,14.10
2018-12-13T12:49:50.518Z,13.70
2018-12-13T12:50:50.500Z,14.00
2018-12-13T12:51:50.489Z,13.90
2018-12-13T12:52:50.478Z,12.90
2018-12-13T12:53:50.467Z,12.70
2018-12-13T12:54:50.456Z,13.40
2018-12-13T12:55:50.734Z,13.70
2018-12-13T12:56:50.437Z,12.30
2018-12-13T12:57:50.425Z,13.30
2018-12-13T12:58:50.412Z,13.20
2018-12-13T12:59:50.408Z,13.40
2018-12-13T13:00:50.400Z,13.40
2018-12-13T13:01:50.642Z,12.30
2018-12-13T13:02:50.370Z,12.60
2018-12-13T13:03:50.359Z,13.40
2018-12-13T13:04:50.347Z,13.40
2018-12-13T13:05:50.335Z,13.40
2018-12-13T13:06:50.326Z,13.20
2018-12-13T13:07:50.332Z,13.10
2018-12-13T13:08:50.301Z,12.90
2018-12-13T13:09:50.291Z,13.10
2018-12-13T13:10:50.279Z,12.50
2018-12-13T13:11:50.268Z,12.70
2018-12-13T13:12:50.258Z,12.70